Time;durP1;ratioP1;P1;durP2;ratioP2;P2;SDS_P1;SDS_P2;PMS_P1;PMS_P2;Temp;Humidity;BMP_temperature;BMP_pressure;BME280_temperature;BME280_humidity;BME280_pressure;Samples;Min_cycle;Max_cycle;Signal;HPM_P1;HPM_P2
2022/09/29 00:02:50;;;;;;;;;;;;;;;19.11;56.04;99309.80;2251433;78;50257;-78
2022/09/29 00:05:52;;;;;;;;;;;;;;;19.09;56.08;99314.55;2251123;77;53896;-77
2022/09/29 00:08:54;;;;;;;;;;;;;;;19.04;56.27;99309.55;2252538;78;51821;-78
2022/09/29 00:11:55;;;;;;;;;;;;;;;19.05;56.23;99311.99;2253961;78;51379;-77
2022/09/29 00:14:57;;;;;;;;;;;;;;;19.02;56.28;99310.28;2252038;76;51536;-78
2022/09/29 00:17:59;;;;;;;;;;;;;;;19.00;56.35;99309.67;2251823;78;51032;-77
2022/09/29 00:21:04;;;;;;;;;;;;;;;19.01;56.35;99316.66;2275110;78;50726;-78
2022/09/29 00:24:05;;;;;;;;;;;;;;;19.02;56.28;99318.32;2251664;78;50439;-77
2022/09/29 00:27:07;;;;;;;;;;;;;;;19.02;56.23;99319.66;2251725;78;51121;-77
2022/09/29 00:30:09;;;;;;;;;;;;;;;19.03;56.17;99318.61;2251687;78;50402;-78
2022/09/29 00:33:10;;;;;;;;;;;;;;;19.02;56.19;99316.45;2275916;78;51566;-78
2022/09/29 00:36:13;;;;;;;;;;;;;;;19.00;56.21;99312.35;2277646;76;51547;-77
2022/09/29 00:39:15;;;;;;;;;;;;;;;19.01;56.25;99311.30;2255225;78;52563;-77
2022/09/29 00:42:18;;;;;;;;;;;;;;;19.00;56.23;99317.19;2251219;78;51559;-77
2022/09/29 00:45:21;;;;;;;;;;;;;;;18.97;56.33;99310.93;2275911;76;50480;-78
2022/09/29 00:48:24;;;;;;;;;;;;;;;18.99;56.28;99305.36;2276008;77;50327;-77
2022/09/29 00:51:26;;;;;;;;;;;;;;;18.99;56.24;99308.05;2260861;78;51369;-78
2022/09/29 00:54:28;;;;;;;;;;;;;;;18.97;56.27;99312.80;2248628;78;50474;-78
2022/09/29 00:57:31;;;;;;;;;;;;;;;19.00;56.15;99310.48;2237722;78;50775;-77
2022/09/29 01:00:33;;;;;;;;;;;;;;;18.99;56.15;99316.90;2238522;79;50574;-78
2022/09/29 01:03:36;;;;;;;;;;;;;;;18.98;56.19;99306.38;2214384;79;51038;-78
2022/09/29 01:06:39;;;;;;;;;;;;;;;18.98;56.20;99313.09;2239190;78;51642;-78
2022/09/29 01:09:40;;;;;;;;;;;;;;;18.96;56.33;99307.11;2238616;79;50839;-78
2022/09/29 01:12:43;;;;;;;;;;;;;;;18.97;56.33;99315.48;2237563;79;51564;-78
2022/09/29 01:15:44;;;;;;;;;;;;;;;18.93;56.44;99311.05;2217246;78;49677;-78
2022/09/29 01:18:46;;;;;;;;;;;;;;;18.93;56.36;99306.53;2239633;79;50446;-77
2022/09/29 01:21:49;;;;;;;;;;;;;;;18.93;56.30;99317.26;2241592;79;51607;-77
2022/09/29 01:24:56;;;;;;;;;;;;;;;18.96;56.35;99323.20;2242035;79;51466;-77
2022/09/29 01:28:16;;;;;;;;;;;;;;;18.95;56.37;99334.45;2223775;79;50170;-77
2022/09/29 01:31:37;;;;;;;;;;;;;;;18.95;56.31;99333.62;2244275;79;51616;-77
2022/09/29 01:34:43;;;;;;;;;;;;;;;18.91;56.31;99342.11;2239914;79;50590;-77
2022/09/29 01:37:53;;;;;;;;;;;;;;;18.92;56.32;99346.42;2241510;78;50860;-78
2022/09/29 01:40:56;;;;;;;;;;;;;;;18.93;56.26;99352.10;2215115;79;51701;-77
2022/09/29 01:44:05;;;;;;;;;;;;;;;18.92;56.29;99353.13;2241886;79;51619;-77
2022/09/29 01:47:08;;;;;;;;;;;;;;;18.91;56.24;99350.16;2244823;78;51609;-77
2022/09/29 01:50:14;;;;;;;;;;;;;;;18.90;56.25;99352.52;2244566;79;50801;-77
2022/09/29 01:53:17;;;;;;;;;;;;;;;18.89;56.30;99352.22;2216244;79;51425;-78
2022/09/29 01:56:20;;;;;;;;;;;;;;;18.88;56.26;99355.95;2237473;78;50473;-77
2022/09/29 01:59:24;;;;;;;;;;;;;;;18.88;56.40;99357.30;2244249;79;51629;-76
2022/09/29 02:02:27;;;;;;;;;;;;;;;18.87;56.36;99352.95;2244941;79;50438;-76
2022/09/29 02:05:30;;;;;;;;;;;;;;;18.87;56.36;99354.81;2223184;78;50206;-76
2022/09/29 02:08:33;;;;;;;;;;;;;;;18.86;56.37;99356.68;2240053;79;50896;-77
2022/09/29 02:11:35;;;;;;;;;;;;;;;18.87;56.34;99359.65;2238862;77;50794;-76
2022/09/29 02:14:38;;;;;;;;;;;;;;;18.87;56.27;99353.47;2240716;79;51614;-77
2022/09/29 02:17:40;;;;;;;;;;;;;;;18.87;56.28;99360.98;2215315;79;51372;-77
2022/09/29 02:20:42;;;;;;;;;;;;;;;18.84;56.37;99360.09;2237970;79;50255;-76
2022/09/29 02:23:44;;;;;;;;;;;;;;;18.84;56.26;99364.11;2241670;79;50059;-77
2022/09/29 02:26:45;;;;;;;;;;;;;;;18.87;56.33;99367.69;2244853;78;50435;-77
2022/09/29 02:29:47;;;;;;;;;;;;;;;18.87;56.19;99361.52;2220661;79;51347;-77
2022/09/29 02:32:48;;;;;;;;;;;;;;;18.84;56.27;99367.31;2237939;79;50678;-77
2022/09/29 02:35:52;;;;;;;;;;;;;;;18.84;56.34;99369.47;2215611;78;50669;-77
2022/09/29 02:38:58;;;;;;;;;;;;;;;18.82;56.27;99370.20;2239233;79;50811;-77
2022/09/29 02:42:04;;;;;;;;;;;;;;;18.82;56.30;99372.88;2223506;79;50183;-77
2022/09/29 02:45:16;;;;;;;;;;;;;;;18.82;56.29;99376.90;2239063;78;51579;-77
2022/09/29 02:48:31;;;;;;;;;;;;;;;18.82;56.22;99374.22;2244593;79;51649;-78
2022/09/29 02:51:49;;;;;;;;;;;;;;;18.83;56.28;99373.69;2241103;79;50458;-77
2022/09/29 02:55:02;;;;;;;;;;;;;;;18.83;56.22;99370.52;2215549;79;51062;-77
2022/09/29 02:58:05;;;;;;;;;;;;;;;18.82;56.25;99375.55;2243841;79;50514;-77
2022/09/29 03:01:07;;;;;;;;;;;;;;;18.82;56.32;99386.80;2240302;78;51812;-78
2022/09/29 03:04:08;;;;;;;;;;;;;;;18.84;56.40;99380.19;2239971;79;50324;-77
2022/09/29 03:07:10;;;;;;;;;;;;;;;18.80;56.53;99380.83;2213750;79;51489;-76
2022/09/29 03:10:12;;;;;;;;;;;;;;;18.82;56.66;99386.27;2215761;79;50452;-77
2022/09/29 03:13:13;;;;;;;;;;;;;;;18.88;56.69;99380.08;2240811;79;52438;-79
2022/09/29 03:16:15;;;;;;;;;;;;;;;18.96;56.60;99373.63;2237532;78;50330;-77
2022/09/29 03:19:16;;;;;;;;;;;;;;;19.05;56.43;99378.20;2214756;79;49663;-77
2022/09/29 03:22:18;;;;;;;;;;;;;;;19.14;56.25;99380.94;2215639;79;50162;-77
2022/09/29 03:25:21;;;;;;;;;;;;;;;19.22;56.07;99379.32;2238187;79;50790;-76
2022/09/29 03:28:22;;;;;;;;;;;;;;;19.29;55.92;99389.48;2238894;79;51624;-77
2022/09/29 03:31:24;;;;;;;;;;;;;;;19.35;55.78;99380.55;2217002;79;51035;-76
2022/09/29 03:34:26;;;;;;;;;;;;;;;19.44;55.62;99378.93;2239715;79;50407;-77
2022/09/29 03:37:27;;;;;;;;;;;;;;;19.49;55.46;99380.44;2215498;79;50254;-77
2022/09/29 03:40:29;;;;;;;;;;;;;;;19.58;55.35;99386.65;2239777;79;50412;-77
2022/09/29 03:43:30;;;;;;;;;;;;;;;19.65;55.24;99390.63;2222811;79;49407;-77
2022/09/29 03:46:32;;;;;;;;;;;;;;;19.72;55.09;99391.92;2237857;78;50470;-77
2022/09/29 03:49:34;;;;;;;;;;;;;;;19.78;54.98;99392.36;2216235;79;50479;-77
2022/09/29 03:52:36;;;;;;;;;;;;;;;19.85;54.87;99390.44;2242203;79;51598;-77
2022/09/29 03:55:37;;;;;;;;;;;;;;;19.91;54.78;99395.44;2220079;78;51235;-77
2022/09/29 03:58:39;;;;;;;;;;;;;;;19.99;54.59;99400.02;2239321;79;51562;-77
2022/09/29 04:01:41;;;;;;;;;;;;;;;20.06;54.46;99403.14;2242364;79;51533;-77
2022/09/29 04:04:42;;;;;;;;;;;;;;;20.14;54.36;99401.00;2238302;79;51600;-77
2022/09/29 04:07:44;;;;;;;;;;;;;;;20.21;54.21;99404.41;2190975;79;52728;-78
2022/09/29 04:10:46;;;;;;;;;;;;;;;20.28;54.06;99408.38;2240995;79;51591;-77
2022/09/29 04:13:48;;;;;;;;;;;;;;;20.33;53.97;99405.02;2243342;79;50412;-78
2022/09/29 04:16:49;;;;;;;;;;;;;;;20.38;53.86;99410.01;2244275;78;51622;-77
2022/09/29 04:19:51;;;;;;;;;;;;;;;20.47;53.71;99414.54;2213653;79;51845;-77
2022/09/29 04:22:52;;;;;;;;;;;;;;;20.52;53.57;99414.69;2242459;79;51567;-77
2022/09/29 04:25:54;;;;;;;;;;;;;;;20.58;53.47;99419.20;2242206;78;51564;-77
2022/09/29 04:28:56;;;;;;;;;;;;;;;20.64;53.33;99419.63;2245037;79;50389;-76
2022/09/29 04:31:58;;;;;;;;;;;;;;;20.70;53.25;99417.09;2193394;79;50164;-77
2022/09/29 04:34:59;;;;;;;;;;;;;;;20.74;53.16;99419.63;2214856;78;50769;-76
2022/09/29 04:38:01;;;;;;;;;;;;;;;20.78;53.03;99416.77;2238773;79;51586;-76
2022/09/29 04:41:03;;;;;;;;;;;;;;;20.82;52.91;99423.34;2216975;79;50750;-77
2022/09/29 04:44:05;;;;;;;;;;;;;;;20.88;52.83;99428.64;2222769;79;50182;-77
2022/09/29 04:47:06;;;;;;;;;;;;;;;20.92;52.83;99432.21;2239524;79;51590;-77
2022/09/29 04:50:08;;;;;;;;;;;;;;;20.99;52.65;99436.45;2238075;79;51571;-76
2022/09/29 04:53:10;;;;;;;;;;;;;;;21.00;52.60;99434.05;2238718;79;50363;-75
2022/09/29 04:56:12;;;;;;;;;;;;;;;21.04;52.50;99436.59;2191298;79;51026;-76
2022/09/29 04:59:14;;;;;;;;;;;;;;;21.07;52.49;99441.50;2215008;79;51447;-76
2022/09/29 05:02:15;;;;;;;;;;;;;;;21.09;52.48;99438.56;2215729;79;51563;-77
2022/09/29 05:05:17;;;;;;;;;;;;;;;21.13;52.50;99438.41;2244233;78;51521;-75
2022/09/29 05:08:18;;;;;;;;;;;;;;;21.17;52.48;99444.14;2224654;79;51012;-75
2022/09/29 05:11:20;;;;;;;;;;;;;;;21.19;52.51;99443.39;2220383;79;51524;-76
2022/09/29 05:14:21;;;;;;;;;;;;;;;21.20;52.51;99443.70;2225874;78;51539;-78
2022/09/29 05:17:23;;;;;;;;;;;;;;;21.23;52.54;99443.25;2274886;78;51534;-77
2022/09/29 05:20:25;;;;;;;;;;;;;;;21.25;52.54;99451.38;2225122;78;49630;-78
2022/09/29 05:23:27;;;;;;;;;;;;;;;21.27;52.55;99448.44;2275642;78;50400;-78
2022/09/29 05:26:29;;;;;;;;;;;;;;;21.30;52.53;99452.86;2249880;78;51566;-78
2022/09/29 05:29:30;;;;;;;;;;;;;;;21.31;52.55;99455.02;2281664;78;51534;-77
2022/09/29 05:32:32;;;;;;;;;;;;;;;21.36;52.54;99458.37;2256834;78;52509;-77
2022/09/29 05:35:33;;;;;;;;;;;;;;;21.39;52.61;99458.75;2249917;78;50425;-77
2022/09/29 05:38:35;;;;;;;;;;;;;;;21.44;52.61;99460.75;2276253;78;50505;-77
2022/09/29 05:41:37;;;;;;;;;;;;;;;21.46;52.58;99460.81;2276613;78;51571;-76
2022/09/29 05:44:38;;;;;;;;;;;;;;;21.50;52.42;99465.20;2226526;78;50984;-77
2022/09/29 05:47:43;;;;;;;;;;;;;;;21.55;52.29;99463.17;2276786;78;50423;-77
2022/09/29 05:50:45;;;;;;;;;;;;;;;21.58;52.24;99466.23;2250166;78;51598;-79
2022/09/29 05:53:46;;;;;;;;;;;;;;;21.61;52.16;99460.91;2276740;78;52271;-79
2022/09/29 05:56:48;;;;;;;;;;;;;;;21.62;52.23;99463.89;2251830;78;51737;-79
2022/09/29 05:59:49;;;;;;;;;;;;;;;21.65;52.24;99468.80;2267979;78;51520;-79
2022/09/29 06:02:51;;;;;;;;;;;;;;;21.63;52.33;99460.13;2237828;79;50807;-80
2022/09/29 06:05:53;;;;;;;;;;;;;;;21.67;52.31;99469.40;2241226;79;50662;-80
2022/09/29 06:08:54;;;;;;;;;;;;;;;21.71;52.25;99474.09;2214588;79;52710;-78
2022/09/29 06:11:56;;;;;;;;;;;;;;;21.72;52.25;99474.91;2237124;79;51735;-79
2022/09/29 06:14:57;;;;;;;;;;;;;;;21.76;52.20;99474.75;2236656;79;51564;-79
2022/09/29 06:18:00;;;;;;;;;;;;;;;21.78;52.18;99482.58;2240636;79;51562;-78
2022/09/29 06:21:03;;;;;;;;;;;;;;;21.79;52.19;99474.28;2211921;79;49474;-79
2022/09/29 06:24:06;;;;;;;;;;;;;;;21.80;52.15;99482.63;2242376;78;50557;-78
2022/09/29 06:27:07;;;;;;;;;;;;;;;21.81;52.15;99480.75;2240110;78;50745;-78
2022/09/29 06:30:11;;;;;;;;;;;;;;;21.82;52.16;99483.77;2255851;78;51895;-78
2022/09/29 06:33:13;;;;;;;;;;;;;;;21.79;52.19;99482.36;2278619;78;24920;-79
2022/09/29 06:39:36;;;;;;;;;;;;;;;21.82;52.24;99485.92;2283113;78;22393;-78
2022/09/29 06:42:37;;;;;;;;;;;;;;;21.83;52.27;99484.86;2260222;77;52053;-79
2022/09/29 06:45:39;;;;;;;;;;;;;;;21.84;52.26;99486.52;2235488;78;51331;-79
2022/09/29 06:48:40;;;;;;;;;;;;;;;21.84;52.23;99491.91;2252755;78;50177;-80
2022/09/29 06:51:42;;;;;;;;;;;;;;;21.87;52.14;99482.00;2263982;78;50393;-79
2022/09/29 06:54:44;;;;;;;;;;;;;;;21.90;52.09;99493.66;2283308;78;50792;-80
2022/09/29 06:57:46;;;;;;;;;;;;;;;21.92;51.97;99493.43;2234756;78;51016;-79
2022/09/29 07:00:47;;;;;;;;;;;;;;;21.96;51.87;99498.13;2270332;77;50340;-80
2022/09/29 07:03:49;;;;;;;;;;;;;;;21.95;51.87;99498.34;2230098;79;50370;-79
2022/09/29 07:06:50;;;;;;;;;;;;;;;21.98;51.83;99502.45;2251352;79;50493;-79
2022/09/29 07:09:52;;;;;;;;;;;;;;;22.00;51.72;99498.47;2250551;76;49597;-79
2022/09/29 07:12:54;;;;;;;;;;;;;;;22.01;51.69;99499.28;2251887;79;50403;-78
2022/09/29 07:15:56;;;;;;;;;;;;;;;22.04;51.62;99504.20;2254522;79;51585;-79
2022/09/29 07:18:57;;;;;;;;;;;;;;;22.07;51.54;99501.06;2255804;79;50761;-79
2022/09/29 07:21:59;;;;;;;;;;;;;;;22.07;51.52;99511.83;2231854;79;49596;-80
2022/09/29 07:25:01;;;;;;;;;;;;;;;22.07;51.49;99508.61;2232371;79;50334;-78
2022/09/29 07:28:02;;;;;;;;;;;;;;;22.10;51.45;99511.36;2235438;78;51637;-78
2022/09/29 07:31:05;;;;;;;;;;;;;;;22.12;51.37;99515.98;2281046;77;51554;-78
2022/09/29 07:34:06;;;;;;;;;;;;;;;22.12;51.36;99521.37;2278206;77;51063;-78
2022/09/29 07:37:08;;;;;;;;;;;;;;;22.13;51.33;99517.09;2276518;77;51654;-79
2022/09/29 07:40:09;;;;;;;;;;;;;;;22.14;51.33;99523.29;2280290;77;51507;-79
2022/09/29 07:43:11;;;;;;;;;;;;;;;22.13;51.32;99523.82;2279376;78;51470;-79
2022/09/29 07:46:13;;;;;;;;;;;;;;;22.15;51.26;99528.98;2286394;76;49695;-78
2022/09/29 07:49:15;;;;;;;;;;;;;;;22.15;51.30;99537.07;2279771;78;50720;-78
2022/09/29 07:52:16;;;;;;;;;;;;;;;22.15;51.29;99536.54;2277709;77;50338;-78
2022/09/29 07:55:20;;;;;;;;;;;;;;;22.13;51.30;99541.33;2282262;78;50455;-79
2022/09/29 07:58:21;;;;;;;;;;;;;;;22.15;51.24;99538.42;2305503;75;51008;-79
2022/09/29 08:01:23;;;;;;;;;;;;;;;22.16;51.23;99540.05;2276144;78;50802;-79
2022/09/29 08:04:24;;;;;;;;;;;;;;;22.18;51.18;99543.33;2275817;77;50765;-77
2022/09/29 08:07:26;;;;;;;;;;;;;;;22.17;51.21;99551.14;2274899;77;51573;-77
2022/09/29 08:10:28;;;;;;;;;;;;;;;22.01;48.21;99553.15;2246548;76;51863;-77
2022/09/29 08:13:31;;;;;;;;;;;;;;;21.89;48.34;99560.70;2261776;78;50818;-77
2022/09/29 08:16:33;;;;;;;;;;;;;;;21.92;48.70;99554.03;2261422;77;51558;-77
2022/09/29 08:19:34;;;;;;;;;;;;;;;21.95;48.95;99558.95;2261486;78;52383;-77
2022/09/29 08:22:36;;;;;;;;;;;;;;;21.98;49.12;99562.52;2207423;78;52663;-77
2022/09/29 08:25:38;;;;;;;;;;;;;;;21.98;49.37;99562.52;2261289;77;51560;-78
2022/09/29 08:28:39;;;;;;;;;;;;;;;22.01;49.52;99566.62;2231524;78;51324;-77
2022/09/29 08:31:42;;;;;;;;;;;;;;;22.01;49.64;99566.09;2261895;78;51528;-77
2022/09/29 08:34:44;;;;;;;;;;;;;;;22.00;49.83;99569.03;2231675;78;50769;-77
2022/09/29 08:37:46;;;;;;;;;;;;;;;22.01;49.91;99569.31;2251792;77;50260;-77
2022/09/29 08:40:47;;;;;;;;;;;;;;;22.04;49.96;99567.49;2251960;78;51608;-77
2022/09/29 08:43:49;;;;;;;;;;;;;;;22.07;49.99;99571.09;2236553;79;50361;-77
2022/09/29 08:46:52;;;;;;;;;;;;;;;22.06;50.09;99572.13;2226488;79;50693;-78
2022/09/29 08:49:57;;;;;;;;;;;;;;;22.08;50.12;99565.98;2257314;77;49914;-79
2022/09/29 08:53:00;;;;;;;;;;;;;;;22.09;50.15;99579.74;2234727;78;50463;-78
2022/09/29 08:56:05;;;;;;;;;;;;;;;22.10;50.18;99578.71;2220893;80;51651;-78
2022/09/29 08:59:08;;;;;;;;;;;;;;;22.13;49.60;99572.84;2197713;80;50517;-79
2022/09/29 09:02:14;;;;;;;;;;;;;;;22.11;49.70;99583.03;2199118;78;51120;-78
2022/09/29 09:05:34;;;;;;;;;;;;;;;22.15;49.74;99585.03;2217918;78;50380;-77
2022/09/29 09:08:37;;;;;;;;;;;;;;;22.15;49.88;99585.56;2220917;80;51632;-78
2022/09/29 09:11:53;;;;;;;;;;;;;;;22.22;49.83;99591.70;2220501;78;51666;-77
2022/09/29 09:15:13;;;;;;;;;;;;;;;22.23;49.89;99595.22;2200149;80;50422;-78
2022/09/29 09:18:21;;;;;;;;;;;;;;;22.22;49.95;99594.40;2220395;79;51646;-78
2022/09/29 09:21:29;;;;;;;;;;;;;;;22.25;49.95;99596.63;2220101;80;22202;-77
2022/09/29 09:24:35;;;;;;;;;;;;;;;22.26;49.94;99597.44;2220363;79;52577;-78
2022/09/29 09:27:38;;;;;;;;;;;;;;;22.27;49.97;99593.17;2198366;78;51284;-78
2022/09/29 09:30:51;;;;;;;;;;;;;;;22.31;49.93;99593.52;2220165;79;50375;-77
2022/09/29 09:33:54;;;;;;;;;;;;;;;22.34;49.88;99604.64;2220732;78;51762;-79
2022/09/29 09:36:57;;;;;;;;;;;;;;;22.28;50.02;99601.54;2219399;78;51598;-79
2022/09/29 09:40:00;;;;;;;;;;;;;;;22.21;50.17;99596.78;2198378;80;52726;-77
2022/09/29 09:43:03;;;;;;;;;;;;;;;22.16;50.29;99599.32;2220559;80;50794;-77
2022/09/29 09:46:21;;;;;;;;;;;;;;;22.18;50.36;99608.00;2220244;79;50754;-79
2022/09/29 09:49:33;;;;;;;;;;;;;;;22.20;50.35;99607.81;2276686;78;50745;-79
2022/09/29 09:52:39;;;;;;;;;;;;;;;22.20;50.34;99609.97;2247919;78;51042;-78
2022/09/29 09:55:42;;;;;;;;;;;;;;;22.22;50.31;99611.91;2239778;79;51703;-79
2022/09/29 09:58:45;;;;;;;;;;;;;;;22.23;50.54;99618.94;2239282;79;51555;-79
2022/09/29 10:01:46;;;;;;;;;;;;;;;22.26;50.54;99617.11;2241393;79;50816;-78
2022/09/29 10:04:49;;;;;;;;;;;;;;;22.25;50.58;99613.33;2214263;79;49545;-77
2022/09/29 10:07:50;;;;;;;;;;;;;;;22.28;50.52;99616.36;2243366;79;50799;-78
2022/09/29 10:10:52;;;;;;;;;;;;;;;22.29;50.57;99623.38;2238159;79;50754;-78
2022/09/29 10:14:07;;;;;;;;;;;;;;;22.32;50.57;99623.45;2238998;79;50451;-79
2022/09/29 10:17:11;;;;;;;;;;;;;;;22.32;50.51;99632.88;2216026;79;51778;-78
2022/09/29 10:20:12;;;;;;;;;;;;;;;22.28;50.62;99635.77;2238449;79;51536;-79
2022/09/29 10:23:22;;;;;;;;;;;;;;;22.22;50.74;99629.93;2215512;79;51714;-80
2022/09/29 10:26:25;;;;;;;;;;;;;;;22.16;50.90;99631.66;2238346;78;51643;-78
2022/09/29 10:29:43;;;;;;;;;;;;;;;22.17;50.93;99627.92;2237126;79;50352;-79
2022/09/29 10:32:44;;;;;;;;;;;;;;;22.17;50.94;99635.47;2243899;79;51308;-80
2022/09/29 10:35:46;;;;;;;;;;;;;;;22.18;51.04;99633.59;2245097;78;50446;-81
2022/09/29 10:38:49;;;;;;;;;;;;;;;22.23;50.96;99639.14;2246148;79;51481;-80
2022/09/29 10:41:53;;;;;;;;;;;;;;;22.25;50.95;99637.05;2225312;79;51201;-80
2022/09/29 10:44:56;;;;;;;;;;;;;;;22.29;50.87;99644.13;2233255;79;50988;-79
2022/09/29 10:48:00;;;;;;;;;;;;;;;22.30;50.85;99637.17;2222391;78;50916;-81
2022/09/29 10:51:02;;;;;;;;;;;;;;;22.29;50.84;99642.25;2221900;79;51084;-78
2022/09/29 10:54:07;;;;;;;;;;;;;;;22.24;50.92;99643.47;2214087;78;51422;-78
2022/09/29 10:57:13;;;;;;;;;;;;;;;22.20;51.00;99643.66;2253241;79;50226;-79
2022/09/29 11:00:33;;;;;;;;;;;;;;;22.15;50.46;99647.53;2262916;78;52063;-78
2022/09/29 11:03:35;;;;;;;;;;;;;;;22.12;49.90;99638.05;2281013;77;50708;-78
2022/09/29 11:06:38;;;;;;;;;;;;;;;22.14;50.06;99636.45;2298960;76;51610;-78
2022/09/29 11:09:43;;;;;;;;;;;;;;;22.17;50.12;99636.01;2288793;76;50727;-78
2022/09/29 11:12:47;;;;;;;;;;;;;;;22.17;50.22;99640.86;2252921;79;51594;-79
2022/09/29 11:15:48;;;;;;;;;;;;;;;22.21;50.21;99649.33;2252172;78;22421;-78
2022/09/29 11:18:51;;;;;;;;;;;;;;;22.23;50.24;99651.27;2226131;78;50373;-78
2022/09/29 11:22:00;;;;;;;;;;;;;;;22.26;50.20;99652.68;2238175;79;50742;-78
2022/09/29 11:25:15;;;;;;;;;;;;;;;22.29;50.17;99657.06;2222617;79;51547;-78
2022/09/29 11:28:33;;;;;;;;;;;;;;;22.27;50.23;99661.89;2238029;79;50884;-78
2022/09/29 11:31:40;;;;;;;;;;;;;;;22.22;50.36;99660.92;2214072;79;52814;-79
2022/09/29 11:34:43;;;;;;;;;;;;;;;22.16;50.52;99654.55;2246974;78;50784;-79
2022/09/29 11:37:54;;;;;;;;;;;;;;;22.12;50.69;99657.44;2309634;76;50810;-77
2022/09/29 11:41:03;;;;;;;;;;;;;;;22.11;50.79;99661.16;2325304;76;22352;-79
2022/09/29 11:44:07;;;;;;;;;;;;;;;22.14;50.89;99660.69;2253263;77;50286;-80
2022/09/29 11:47:10;;;;;;;;;;;;;;;22.17;51.05;99665.64;2278924;76;51527;-80
2022/09/29 11:50:31;;;;;;;;;;;;;;;22.20;51.20;99670.59;2281489;78;51645;-78
2022/09/29 11:53:39;;;;;;;;;;;;;;;22.26;51.34;99666.16;2277227;78;51498;-81
2022/09/29 11:56:51;;;;;;;;;;;;;;;22.27;51.74;99671.83;2277677;77;51042;-76
2022/09/29 11:59:55;;;;;;;;;;;;;;;22.25;52.13;99668.03;2241253;78;50371;-76
2022/09/29 12:03:01;;;;;;;;;;;;;;;22.19;52.51;99672.98;2212409;79;50582;-76
2022/09/29 12:06:04;;;;;;;;;;;;;;;22.13;52.84;99668.49;2212151;78;50513;-76
2022/09/29 12:09:07;;;;;;;;;;;;;;;22.08;53.08;99668.36;2190670;80;51588;-76
2022/09/29 12:12:27;;;;;;;;;;;;;;;22.07;53.35;99676.97;2217699;79;50468;-75
2022/09/29 12:15:42;;;;;;;;;;;;;;;22.10;53.47;99673.00;2254376;77;50127;-77
2022/09/29 12:18:48;;;;;;;;;;;;;;;22.11;53.54;99671.94;2253622;79;51776;-76
2022/09/29 12:21:51;;;;;;;;;;;;;;;22.14;53.61;99675.52;2234128;79;51056;-75
2022/09/29 12:25:00;;;;;;;;;;;;;;;22.20;53.59;99678.69;2254243;78;50835;-76
2022/09/29 12:28:04;;;;;;;;;;;;;;;22.15;53.72;99671.78;2253534;79;22291;-75
2022/09/29 12:31:10;;;;;;;;;;;;;;;22.10;53.92;99671.66;2254172;78;50864;-76
2022/09/29 12:34:30;;;;;;;;;;;;;;;22.07;54.07;99662.69;2231690;78;51928;-76
2022/09/29 12:37:52;;;;;;;;;;;;;;;22.07;54.27;99662.69;2232775;78;51615;-76
2022/09/29 12:41:01;;;;;;;;;;;;;;;22.09;54.38;99660.56;2229856;78;50349;-75
2022/09/29 12:44:16;;;;;;;;;;;;;;;22.14;54.44;99660.69;2235727;78;51626;-77
2022/09/29 12:47:34;;;;;;;;;;;;;;;22.13;54.54;99665.80;2094198;84;52690;-75
2022/09/29 12:50:37;;;;;;;;;;;;;;;22.16;54.65;99668.84;2028446;87;50856;-76
2022/09/29 12:53:41;;;;;;;;;;;;;;;22.21;54.65;99666.02;2065684;86;51610;-77
2022/09/29 12:56:51;;;;;;;;;;;;;;;22.18;54.67;99671.31;2067646;85;50337;-77
2022/09/29 12:59:59;;;;;;;;;;;;;;;22.14;54.81;99674.16;2093695;84;50177;-77
2022/09/29 13:03:02;;;;;;;;;;;;;;;22.11;54.92;99669.24;2066890;84;51568;-76
2022/09/29 13:06:14;;;;;;;;;;;;;;;22.03;55.18;99673.09;2116151;84;51623;-76
2022/09/29 13:09:17;;;;;;;;;;;;;;;22.04;55.30;99677.94;2067702;84;51578;-76
2022/09/29 13:12:37;;;;;;;;;;;;;;;22.05;55.33;99675.56;2046441;85;51065;-77
2022/09/29 13:15:57;;;;;;;;;;;;;;;22.05;55.37;99675.03;2066408;85;51642;-77
2022/09/29 13:19:12;;;;;;;;;;;;;;;22.15;55.21;99678.52;2067734;84;50497;-77
2022/09/29 13:22:32;;;;;;;;;;;;;;;22.21;55.15;99680.31;2068500;82;49662;-77
2022/09/29 13:25:53;;;;;;;;;;;;;;;22.23;55.15;99680.91;2189104;79;51065;-77
2022/09/29 13:28:56;;;;;;;;;;;;;;;22.22;55.25;99688.71;2193437;80;51640;-77
2022/09/29 13:31:58;;;;;;;;;;;;;;;22.16;55.33;99682.31;2206096;80;51555;-77
2022/09/29 13:35:00;;;;;;;;;;;;;;;22.13;55.49;99687.35;2209738;79;51505;-77
2022/09/29 13:38:03;;;;;;;;;;;;;;;22.11;55.63;99688.10;2189742;79;51049;-76
2022/09/29 13:41:08;;;;;;;;;;;;;;;22.11;55.68;99689.45;2209475;80;50835;-77
2022/09/29 13:44:17;;;;;;;;;;;;;;;22.16;55.69;99694.97;2188712;80;50369;-77
2022/09/29 13:47:32;;;;;;;;;;;;;;;22.18;55.74;99702.30;2209751;79;51561;-77
2022/09/29 13:50:50;;;;;;;;;;;;;;;22.16;55.76;99686.36;2189029;80;51688;-76
2022/09/29 13:54:09;;;;;;;;;;;;;;;22.10;55.96;99697.25;2209291;79;50813;-76
2022/09/29 13:57:19;;;;;;;;;;;;;;;22.05;56.10;99695.23;2209437;79;50446;-77
2022/09/29 14:00:20;;;;;;;;;;;;;;;22.01;56.48;99697.27;2209568;80;51731;-76
2022/09/29 14:03:24;;;;;;;;;;;;;;;22.03;56.69;99705.41;2189659;80;51090;-77
2022/09/29 14:06:29;;;;;;;;;;;;;;;22.04;56.71;99699.49;2209784;79;50797;-76
2022/09/29 14:09:32;;;;;;;;;;;;;;;22.07;56.68;99705.27;2188624;80;50824;-77
2022/09/29 14:12:33;;;;;;;;;;;;;;;22.08;56.76;99712.28;2209752;79;50679;-76
2022/09/29 14:15:36;;;;;;;;;;;;;;;22.09;56.71;99706.36;2188422;79;51928;-77
2022/09/29 14:18:40;;;;;;;;;;;;;;;22.08;56.72;99708.77;2209538;80;50399;-78
2022/09/29 14:21:46;;;;;;;;;;;;;;;22.04;56.83;99717.00;2209674;80;50188;-78
2022/09/29 14:24:49;;;;;;;;;;;;;;;22.01;57.08;99718.28;2209655;80;50883;-76
2022/09/29 14:28:00;;;;;;;;;;;;;;;22.00;56.96;99722.03;2189519;80;51091;-77
2022/09/29 14:31:02;;;;;;;;;;;;;;;22.03;56.88;99720.76;2209223;79;50348;-74
2022/09/29 14:34:04;;;;;;;;;;;;;;;22.04;56.84;99721.05;2212520;80;51687;-78
2022/09/29 14:37:06;;;;;;;;;;;;;;;22.12;56.88;99724.26;2213120;79;51669;-78
2022/09/29 14:43:28;;;;;;;;;;;;;;;22.12;57.16;99730.17;2193321;80;23644;-78
2022/09/29 14:53:40;;;;;;;;;;;;;;;22.02;58.12;99736.11;2215485;80;22457;-76
2022/09/29 14:56:44;;;;;;;;;;;;;;;22.06;58.23;99739.16;2172133;79;50757;-76
2022/09/29 14:59:47;;;;;;;;;;;;;;;22.09;58.22;99743.58;2215093;79;50073;-77
2022/09/29 15:02:54;;;;;;;;;;;;;;;22.14;57.96;99746.91;2214851;80;50227;-76
2022/09/29 15:06:03;;;;;;;;;;;;;;;22.11;58.10;99750.88;2192806;79;50772;-77
2022/09/29 15:09:17;;;;;;;;;;;;;;;22.08;58.16;99746.48;2200963;79;50800;-75
2022/09/29 15:12:20;;;;;;;;;;;;;;;22.05;58.33;99749.64;2215038;80;50423;-75
2022/09/29 15:15:36;;;;;;;;;;;;;;;22.05;58.47;99756.38;2215406;79;52870;-75
2022/09/29 15:18:45;;;;;;;;;;;;;;;22.02;58.52;99751.45;2193317;80;49600;-77
2022/09/29 15:21:51;;;;;;;;;;;;;;;22.05;58.58;99758.55;2214471;80;50836;-76
2022/09/29 15:25:00;;;;;;;;;;;;;;;22.09;58.83;99758.89;2215565;78;50863;-76
2022/09/29 15:28:15;;;;;;;;;;;;;;;22.09;58.92;99758.89;2215565;79;50588;-75
2022/09/29 15:31:18;;;;;;;;;;;;;;;22.07;58.89;99771.27;2193582;80;52678;-76
2022/09/29 15:34:20;;;;;;;;;;;;;;;22.04;59.11;99774.92;2215354;79;51608;-76
2022/09/29 15:37:22;;;;;;;;;;;;;;;21.99;59.29;99777.47;2215434;80;50505;-77
2022/09/29 15:40:24;;;;;;;;;;;;;;;21.99;59.19;99774.28;2193497;79;51533;-76
2022/09/29 15:43:27;;;;;;;;;;;;;;;22.01;59.35;99772.16;2166417;80;52106;-75
2022/09/29 15:46:37;;;;;;;;;;;;;;;22.06;59.27;99778.22;2214225;79;50392;-76
2022/09/29 15:49:38;;;;;;;;;;;;;;;22.10;59.16;99780.23;2214316;80;50389;-77
2022/09/29 15:52:40;;;;;;;;;;;;;;;22.11;59.42;99783.74;2193037;80;50780;-77
2022/09/29 15:55:41;;;;;;;;;;;;;;;22.05;59.56;99781.97;2191773;79;50140;-76
2022/09/29 15:58:44;;;;;;;;;;;;;;;22.02;59.66;99787.28;2215259;79;51558;-75
2022/09/29 16:01:45;;;;;;;;;;;;;;;22.00;59.74;99787.22;2215493;80;51761;-77
2022/09/29 16:04:48;;;;;;;;;;;;;;;21.97;59.83;99783.11;2215299;79;50861;-77
2022/09/29 16:07:51;;;;;;;;;;;;;;;21.99;59.64;99785.55;2193259;80;51230;-76
2022/09/29 16:10:56;;;;;;;;;;;;;;;22.03;59.40;99780.02;2215724;79;51634;-77
2022/09/29 16:14:01;;;;;;;;;;;;;;;22.01;59.62;99784.81;2215620;80;51648;-75
2022/09/29 16:17:02;;;;;;;;;;;;;;;22.01;59.57;99784.28;2213112;80;50039;-74